sensor_id;sensor_type;location;lat;lon;timestamp;P1;durP1;ratioP1;P2;durP2;ratioP2
56511;SDS011;42408;53.238;5.686;2023-04-12T00:01:03;10.23;;;3.77;;
56511;SDS011;42408;53.238;5.686;2023-04-12T00:03:29;10.60;;;4.07;;
56511;SDS011;42408;53.238;5.686;2023-04-12T00:05:57;14.18;;;4.00;;
56511;SDS011;42408;53.238;5.686;2023-04-12T00:08:27;9.75;;;3.72;;
56511;SDS011;42408;53.238;5.686;2023-04-12T00:10:57;8.85;;;4.18;;
56511;SDS011;42408;53.238;5.686;2023-04-12T00:13:24;8.70;;;3.92;;
56511;SDS011;42408;53.238;5.686;2023-04-12T00:15:50;9.37;;;3.83;;
56511;SDS011;42408;53.238;5.686;2023-04-12T00:18:15;12.17;;;4.07;;
56511;SDS011;42408;53.238;5.686;2023-04-12T00:20:41;10.50;;;4.10;;
56511;SDS011;42408;53.238;5.686;2023-04-12T00:23:07;8.57;;;3.92;;
56511;SDS011;42408;53.238;5.686;2023-04-12T00:25:34;12.23;;;4.20;;
56511;SDS011;42408;53.238;5.686;2023-04-12T00:28:02;10.18;;;3.90;;
56511;SDS011;42408;53.238;5.686;2023-04-12T00:30:28;12.47;;;4.73;;
56511;SDS011;42408;53.238;5.686;2023-04-12T00:32:53;10.20;;;4.03;;
56511;SDS011;42408;53.238;5.686;2023-04-12T00:35:19;11.87;;;4.50;;
56511;SDS011;42408;53.238;5.686;2023-04-12T00:37:45;10.10;;;4.60;;
56511;SDS011;42408;53.238;5.686;2023-04-12T00:40:10;9.57;;;4.10;;
56511;SDS011;42408;53.238;5.686;2023-04-12T00:42:36;11.43;;;4.07;;
56511;SDS011;42408;53.238;5.686;2023-04-12T00:45:03;12.98;;;4.20;;
56511;SDS011;42408;53.238;5.686;2023-04-12T00:47:29;9.73;;;3.92;;
56511;SDS011;42408;53.238;5.686;2023-04-12T00:49:56;7.53;;;3.83;;
56511;SDS011;42408;53.238;5.686;2023-04-12T00:52:23;10.32;;;4.30;;
56511;SDS011;42408;53.238;5.686;2023-04-12T00:54:48;11.87;;;4.33;;
56511;SDS011;42408;53.238;5.686;2023-04-12T00:59:41;13.70;;;4.28;;
56511;SDS011;42408;53.238;5.686;2023-04-12T01:02:07;15.43;;;5.17;;
56511;SDS011;42408;53.238;5.686;2023-04-12T01:04:33;8.27;;;3.97;;
56511;SDS011;42408;53.238;5.686;2023-04-12T01:07:18;9.30;;;3.97;;
56511;SDS011;42408;53.238;5.686;2023-04-12T01:12:55;10.40;;;3.80;;
56511;SDS011;42408;53.238;5.686;2023-04-12T01:15:36;9.82;;;3.85;;
56511;SDS011;42408;53.238;5.686;2023-04-12T01:18:08;12.00;;;4.38;;
56511;SDS011;42408;53.238;5.686;2023-04-12T01:20:42;11.02;;;4.05;;
56511;SDS011;42408;53.238;5.686;2023-04-12T01:29:08;14.60;;;5.18;;
56511;SDS011;42408;53.238;5.686;2023-04-12T01:31:49;10.65;;;4.68;;
56511;SDS011;42408;53.238;5.686;2023-04-12T01:34:21;10.77;;;4.65;;
56511;SDS011;42408;53.238;5.686;2023-04-12T01:36:49;10.95;;;5.07;;
56511;SDS011;42408;53.238;5.686;2023-04-12T01:39:15;10.88;;;3.85;;
56511;SDS011;42408;53.238;5.686;2023-04-12T01:41:41;8.30;;;4.43;;
56511;SDS011;42408;53.238;5.686;2023-04-12T01:44:13;9.05;;;4.18;;
56511;SDS011;42408;53.238;5.686;2023-04-12T01:46:42;8.40;;;3.90;;
56511;SDS011;42408;53.238;5.686;2023-04-12T01:49:11;8.95;;;4.25;;
56511;SDS011;42408;53.238;5.686;2023-04-12T01:54:18;12.25;;;3.70;;
56511;SDS011;42408;53.238;5.686;2023-04-12T01:57:01;11.52;;;3.92;;
56511;SDS011;42408;53.238;5.686;2023-04-12T01:59:29;8.85;;;3.53;;
56511;SDS011;42408;53.238;5.686;2023-04-12T02:01:58;12.40;;;3.90;;
56511;SDS011;42408;53.238;5.686;2023-04-12T02:04:25;8.88;;;3.58;;
56511;SDS011;42408;53.238;5.686;2023-04-12T02:06:51;8.15;;;3.47;;
56511;SDS011;42408;53.238;5.686;2023-04-12T02:09:18;10.38;;;3.58;;
56511;SDS011;42408;53.238;5.686;2023-04-12T02:11:47;9.90;;;3.97;;
56511;SDS011;42408;53.238;5.686;2023-04-12T02:14:13;7.07;;;3.08;;
56511;SDS011;42408;53.238;5.686;2023-04-12T02:16:39;10.63;;;3.70;;
56511;SDS011;42408;53.238;5.686;2023-04-12T02:19:06;8.73;;;3.55;;
56511;SDS011;42408;53.238;5.686;2023-04-12T02:21:39;6.85;;;3.40;;
56511;SDS011;42408;53.238;5.686;2023-04-12T02:24:06;8.10;;;4.00;;
56511;SDS011;42408;53.238;5.686;2023-04-12T02:26:32;7.22;;;3.78;;
56511;SDS011;42408;53.238;5.686;2023-04-12T02:28:58;6.50;;;2.97;;
56511;SDS011;42408;53.238;5.686;2023-04-12T02:31:23;9.60;;;3.70;;
56511;SDS011;42408;53.238;5.686;2023-04-12T02:33:49;7.93;;;3.00;;
56511;SDS011;42408;53.238;5.686;2023-04-12T02:36:15;7.13;;;3.20;;
56511;SDS011;42408;53.238;5.686;2023-04-12T02:38:42;6.57;;;3.05;;
56511;SDS011;42408;53.238;5.686;2023-04-12T02:41:08;6.90;;;3.30;;
56511;SDS011;42408;53.238;5.686;2023-04-12T02:43:33;7.87;;;2.90;;
56511;SDS011;42408;53.238;5.686;2023-04-12T02:45:59;6.00;;;2.83;;
56511;SDS011;42408;53.238;5.686;2023-04-12T02:48:24;7.13;;;3.00;;
56511;SDS011;42408;53.238;5.686;2023-04-12T02:50:50;7.60;;;4.60;;
56511;SDS011;42408;53.238;5.686;2023-04-12T02:53:16;7.27;;;3.27;;
56511;SDS011;42408;53.238;5.686;2023-04-12T02:55:41;9.83;;;3.07;;
56511;SDS011;42408;53.238;5.686;2023-04-12T03:00:34;7.35;;;3.17;;
56511;SDS011;42408;53.238;5.686;2023-04-12T03:03:01;8.67;;;3.00;;
56511;SDS011;42408;53.238;5.686;2023-04-12T03:05:27;9.13;;;3.55;;
56511;SDS011;42408;53.238;5.686;2023-04-12T03:07:53;9.53;;;3.77;;
56511;SDS011;42408;53.238;5.686;2023-04-12T03:10:19;7.97;;;3.37;;
56511;SDS011;42408;53.238;5.686;2023-04-12T03:12:45;6.67;;;3.07;;
56511;SDS011;42408;53.238;5.686;2023-04-12T03:15:11;8.20;;;3.37;;
56511;SDS011;42408;53.238;5.686;2023-04-12T03:17:36;9.57;;;3.93;;
56511;SDS011;42408;53.238;5.686;2023-04-12T03:20:03;8.10;;;3.50;;
56511;SDS011;42408;53.238;5.686;2023-04-12T03:22:35;7.88;;;3.25;;
56511;SDS011;42408;53.238;5.686;2023-04-12T03:25:04;8.70;;;3.63;;
56511;SDS011;42408;53.238;5.686;2023-04-12T03:27:30;10.55;;;4.57;;
56511;SDS011;42408;53.238;5.686;2023-04-12T03:29:56;10.37;;;4.10;;
56511;SDS011;42408;53.238;5.686;2023-04-12T03:32:22;13.50;;;4.50;;
56511;SDS011;42408;53.238;5.686;2023-04-12T03:34:48;8.60;;;3.78;;
56511;SDS011;42408;53.238;5.686;2023-04-12T03:37:15;9.70;;;3.60;;
56511;SDS011;42408;53.238;5.686;2023-04-12T03:39:40;6.30;;;3.77;;
56511;SDS011;42408;53.238;5.686;2023-04-12T03:42:08;8.02;;;3.40;;
56511;SDS011;42408;53.238;5.686;2023-04-12T03:44:34;8.03;;;3.90;;
56511;SDS011;42408;53.238;5.686;2023-04-12T03:47:00;12.23;;;4.40;;
56511;SDS011;42408;53.238;5.686;2023-04-12T03:49:26;8.27;;;3.77;;
56511;SDS011;42408;53.238;5.686;2023-04-12T03:51:51;6.57;;;3.40;;
56511;SDS011;42408;53.238;5.686;2023-04-12T03:54:17;8.27;;;4.37;;
56511;SDS011;42408;53.238;5.686;2023-04-12T03:56:42;6.40;;;3.37;;
56511;SDS011;42408;53.238;5.686;2023-04-12T03:59:08;10.03;;;3.60;;
56511;SDS011;42408;53.238;5.686;2023-04-12T04:01:34;9.10;;;4.17;;
56511;SDS011;42408;53.238;5.686;2023-04-12T04:04:00;6.63;;;3.67;;
56511;SDS011;42408;53.238;5.686;2023-04-12T04:06:27;6.72;;;3.17;;
56511;SDS011;42408;53.238;5.686;2023-04-12T04:08:54;6.85;;;4.03;;
56511;SDS011;42408;53.238;5.686;2023-04-12T04:11:21;7.90;;;3.30;;
56511;SDS011;42408;53.238;5.686;2023-04-12T04:13:46;7.67;;;3.80;;
56511;SDS011;42408;53.238;5.686;2023-04-12T04:16:12;9.27;;;4.50;;
56511;SDS011;42408;53.238;5.686;2023-04-12T04:18:38;8.77;;;4.50;;
56511;SDS011;42408;53.238;5.686;2023-04-12T04:21:03;8.23;;;4.47;;
56511;SDS011;42408;53.238;5.686;2023-04-12T04:23:31;10.10;;;4.40;;
56511;SDS011;42408;53.238;5.686;2023-04-12T04:26:05;8.95;;;4.32;;
56511;SDS011;42408;53.238;5.686;2023-04-12T04:28:34;13.23;;;5.03;;
56511;SDS011;42408;53.238;5.686;2023-04-12T04:31:03;10.20;;;5.13;;
56511;SDS011;42408;53.238;5.686;2023-04-12T04:33:33;11.88;;;4.78;;
56511;SDS011;42408;53.238;5.686;2023-04-12T04:36:00;12.45;;;4.60;;
56511;SDS011;42408;53.238;5.686;2023-04-12T04:38:28;7.85;;;4.78;;
56511;SDS011;42408;53.238;5.686;2023-04-12T04:40:56;8.20;;;4.75;;
56511;SDS011;42408;53.238;5.686;2023-04-12T04:43:24;8.18;;;4.60;;
56511;SDS011;42408;53.238;5.686;2023-04-12T04:45:50;7.95;;;3.60;;
56511;SDS011;42408;53.238;5.686;2023-04-12T04:48:18;9.25;;;4.38;;
56511;SDS011;42408;53.238;5.686;2023-04-12T04:50:45;14.02;;;4.45;;
56511;SDS011;42408;53.238;5.686;2023-04-12T04:53:11;9.27;;;4.17;;
56511;SDS011;42408;53.238;5.686;2023-04-12T04:55:37;8.77;;;4.03;;
56511;SDS011;42408;53.238;5.686;2023-04-12T04:58:04;8.57;;;4.20;;
56511;SDS011;42408;53.238;5.686;2023-04-12T05:00:30;9.80;;;3.67;;
56511;SDS011;42408;53.238;5.686;2023-04-12T05:02:56;10.00;;;4.00;;
56511;SDS011;42408;53.238;5.686;2023-04-12T05:05:22;6.43;;;4.30;;
56511;SDS011;42408;53.238;5.686;2023-04-12T05:07:48;6.13;;;4.03;;
56511;SDS011;42408;53.238;5.686;2023-04-12T05:10:13;8.60;;;3.97;;
56511;SDS011;42408;53.238;5.686;2023-04-12T05:12:39;7.97;;;3.93;;
56511;SDS011;42408;53.238;5.686;2023-04-12T05:15:05;9.97;;;4.13;;
56511;SDS011;42408;53.238;5.686;2023-04-12T05:17:31;9.75;;;4.13;;
56511;SDS011;42408;53.238;5.686;2023-04-12T05:19:58;7.70;;;4.20;;
56511;SDS011;42408;53.238;5.686;2023-04-12T05:22:25;7.80;;;4.30;;
56511;SDS011;42408;53.238;5.686;2023-04-12T05:24:53;8.70;;;4.25;;
56511;SDS011;42408;53.238;5.686;2023-04-12T05:27:20;7.70;;;3.40;;
56511;SDS011;42408;53.238;5.686;2023-04-12T05:29:45;10.27;;;4.40;;
56511;SDS011;42408;53.238;5.686;2023-04-12T05:32:11;9.43;;;4.43;;
56511;SDS011;42408;53.238;5.686;2023-04-12T05:34:37;7.87;;;3.77;;
56511;SDS011;42408;53.238;5.686;2023-04-12T05:37:03;7.23;;;4.43;;
56511;SDS011;42408;53.238;5.686;2023-04-12T05:39:29;10.02;;;4.30;;
56511;SDS011;42408;53.238;5.686;2023-04-12T05:41:55;10.23;;;4.30;;
56511;SDS011;42408;53.238;5.686;2023-04-12T05:44:21;8.30;;;4.30;;
56511;SDS011;42408;53.238;5.686;2023-04-12T05:46:47;8.10;;;4.10;;
56511;SDS011;42408;53.238;5.686;2023-04-12T05:49:12;11.20;;;4.20;;
56511;SDS011;42408;53.238;5.686;2023-04-12T05:51:38;8.67;;;4.40;;
56511;SDS011;42408;53.238;5.686;2023-04-12T05:54:03;10.87;;;4.57;;
56511;SDS011;42408;53.238;5.686;2023-04-12T05:56:32;7.00;;;4.30;;
56511;SDS011;42408;53.238;5.686;2023-04-12T05:58:58;9.10;;;4.77;;
56511;SDS011;42408;53.238;5.686;2023-04-12T06:01:26;7.50;;;4.45;;
56511;SDS011;42408;53.238;5.686;2023-04-12T06:03:55;9.30;;;4.35;;
56511;SDS011;42408;53.238;5.686;2023-04-12T06:06:23;6.72;;;3.92;;
56511;SDS011;42408;53.238;5.686;2023-04-12T06:08:54;9.10;;;4.40;;
56511;SDS011;42408;53.238;5.686;2023-04-12T06:11:24;7.38;;;3.80;;
56511;SDS011;42408;53.238;5.686;2023-04-12T06:13:51;6.30;;;4.40;;
56511;SDS011;42408;53.238;5.686;2023-04-12T06:16:17;9.85;;;4.43;;
56511;SDS011;42408;53.238;5.686;2023-04-12T06:18:42;8.67;;;3.97;;
56511;SDS011;42408;53.238;5.686;2023-04-12T06:21:08;8.50;;;4.07;;
56511;SDS011;42408;53.238;5.686;2023-04-12T06:23:34;7.97;;;4.27;;
56511;SDS011;42408;53.238;5.686;2023-04-12T06:26:00;8.75;;;4.43;;
56511;SDS011;42408;53.238;5.686;2023-04-12T06:28:26;8.30;;;4.80;;
56511;SDS011;42408;53.238;5.686;2023-04-12T06:30:51;8.57;;;4.17;;
56511;SDS011;42408;53.238;5.686;2023-04-12T06:33:18;6.97;;;3.95;;
56511;SDS011;42408;53.238;5.686;2023-04-12T06:35:46;5.60;;;3.75;;
56511;SDS011;42408;53.238;5.686;2023-04-12T06:38:12;6.93;;;4.87;;
56511;SDS011;42408;53.238;5.686;2023-04-12T06:40:37;6.67;;;4.47;;
56511;SDS011;42408;53.238;5.686;2023-04-12T06:43:03;9.13;;;5.03;;
56511;SDS011;42408;53.238;5.686;2023-04-12T06:45:29;9.03;;;5.17;;
56511;SDS011;42408;53.238;5.686;2023-04-12T06:47:54;9.30;;;4.90;;
56511;SDS011;42408;53.238;5.686;2023-04-12T06:50:21;7.90;;;4.75;;
56511;SDS011;42408;53.238;5.686;2023-04-12T06:52:47;8.93;;;4.85;;
56511;SDS011;42408;53.238;5.686;2023-04-12T06:55:13;8.07;;;4.70;;
56511;SDS011;42408;53.238;5.686;2023-04-12T06:57:40;7.78;;;5.20;;
56511;SDS011;42408;53.238;5.686;2023-04-12T07:00:07;11.02;;;5.65;;
56511;SDS011;42408;53.238;5.686;2023-04-12T07:02:33;8.88;;;5.43;;
56511;SDS011;42408;53.238;5.686;2023-04-12T07:04:59;8.13;;;4.93;;
56511;SDS011;42408;53.238;5.686;2023-04-12T07:07:24;7.83;;;4.93;;
56511;SDS011;42408;53.238;5.686;2023-04-12T07:09:50;9.87;;;5.00;;
56511;SDS011;42408;53.238;5.686;2023-04-12T07:12:16;8.95;;;3.80;;
56511;SDS011;42408;53.238;5.686;2023-04-12T07:14:42;7.07;;;4.50;;
56511;SDS011;42408;53.238;5.686;2023-04-12T07:17:08;6.87;;;4.60;;
56511;SDS011;42408;53.238;5.686;2023-04-12T07:19:34;8.43;;;4.80;;
56511;SDS011;42408;53.238;5.686;2023-04-12T07:22:00;7.38;;;4.68;;
56511;SDS011;42408;53.238;5.686;2023-04-12T07:24:26;8.67;;;4.93;;
56511;SDS011;42408;53.238;5.686;2023-04-12T07:26:52;6.77;;;4.63;;
56511;SDS011;42408;53.238;5.686;2023-04-12T07:29:21;7.40;;;4.88;;
56511;SDS011;42408;53.238;5.686;2023-04-12T07:31:46;8.43;;;5.13;;
56511;SDS011;42408;53.238;5.686;2023-04-12T07:34:12;8.97;;;4.87;;
56511;SDS011;42408;53.238;5.686;2023-04-12T07:36:38;9.03;;;5.50;;
56511;SDS011;42408;53.238;5.686;2023-04-12T07:39:03;7.93;;;5.00;;
56511;SDS011;42408;53.238;5.686;2023-04-12T07:41:29;7.70;;;5.10;;
56511;SDS011;42408;53.238;5.686;2023-04-12T07:43:55;7.77;;;4.77;;
56511;SDS011;42408;53.238;5.686;2023-04-12T07:46:21;7.50;;;4.20;;
56511;SDS011;42408;53.238;5.686;2023-04-12T07:48:46;9.00;;;4.57;;
56511;SDS011;42408;53.238;5.686;2023-04-12T07:51:12;8.13;;;4.53;;
56511;SDS011;42408;53.238;5.686;2023-04-12T07:53:38;7.07;;;4.53;;
56511;SDS011;42408;53.238;5.686;2023-04-12T07:56:06;7.95;;;4.55;;
56511;SDS011;42408;53.238;5.686;2023-04-12T07:58:32;9.13;;;4.68;;
56511;SDS011;42408;53.238;5.686;2023-04-12T08:00:58;8.63;;;4.70;;
56511;SDS011;42408;53.238;5.686;2023-04-12T08:03:24;13.33;;;5.87;;
56511;SDS011;42408;53.238;5.686;2023-04-12T08:05:50;11.00;;;5.20;;
56511;SDS011;42408;53.238;5.686;2023-04-12T08:08:19;8.05;;;4.57;;
56511;SDS011;42408;53.238;5.686;2023-04-12T08:10:46;9.65;;;4.80;;
56511;SDS011;42408;53.238;5.686;2023-04-12T08:13:12;10.57;;;5.30;;
56511;SDS011;42408;53.238;5.686;2023-04-12T08:15:37;7.70;;;4.90;;
56511;SDS011;42408;53.238;5.686;2023-04-12T08:18:03;12.23;;;5.17;;
56511;SDS011;42408;53.238;5.686;2023-04-12T08:20:29;9.27;;;4.82;;
56511;SDS011;42408;53.238;5.686;2023-04-12T08:22:55;10.68;;;5.03;;
56511;SDS011;42408;53.238;5.686;2023-04-12T08:25:21;10.10;;;4.43;;
56511;SDS011;42408;53.238;5.686;2023-04-12T08:27:47;9.83;;;5.57;;
56511;SDS011;42408;53.238;5.686;2023-04-12T08:30:14;16.52;;;5.80;;
56511;SDS011;42408;53.238;5.686;2023-04-12T08:32:40;13.07;;;5.00;;
56511;SDS011;42408;53.238;5.686;2023-04-12T08:35:06;13.07;;;5.77;;
56511;SDS011;42408;53.238;5.686;2023-04-12T08:37:32;12.43;;;5.43;;
56511;SDS011;42408;53.238;5.686;2023-04-12T08:39:58;12.35;;;5.28;;
56511;SDS011;42408;53.238;5.686;2023-04-12T08:42:28;15.63;;;5.50;;
56511;SDS011;42408;53.238;5.686;2023-04-12T08:44:55;19.30;;;5.60;;
56511;SDS011;42408;53.238;5.686;2023-04-12T08:47:22;16.67;;;4.95;;
56511;SDS011;42408;53.238;5.686;2023-04-12T08:49:47;13.97;;;5.30;;
56511;SDS011;42408;53.238;5.686;2023-04-12T08:52:13;15.77;;;5.23;;
56511;SDS011;42408;53.238;5.686;2023-04-12T08:54:39;19.90;;;4.40;;
56511;SDS011;42408;53.238;5.686;2023-04-12T08:57:06;16.47;;;4.17;;
56511;SDS011;42408;53.238;5.686;2023-04-12T08:59:35;17.23;;;4.72;;
56511;SDS011;42408;53.238;5.686;2023-04-12T09:02:02;14.63;;;4.03;;
56511;SDS011;42408;53.238;5.686;2023-04-12T09:04:28;15.93;;;5.40;;
56511;SDS011;42408;53.238;5.686;2023-04-12T09:06:54;18.83;;;4.27;;
56511;SDS011;42408;53.238;5.686;2023-04-12T09:12:08;12.18;;;3.88;;
56511;SDS011;42408;53.238;5.686;2023-04-12T09:17:02;12.75;;;3.83;;
56511;SDS011;42408;53.238;5.686;2023-04-12T09:19:31;11.17;;;3.13;;
56511;SDS011;42408;53.238;5.686;2023-04-12T09:21:58;10.27;;;2.80;;
56511;SDS011;42408;53.238;5.686;2023-04-12T09:24:23;10.27;;;3.13;;
56511;SDS011;42408;53.238;5.686;2023-04-12T09:27:10;10.57;;;2.60;;
56511;SDS011;42408;53.238;5.686;2023-04-12T09:29:35;10.07;;;2.78;;
56511;SDS011;42408;53.238;5.686;2023-04-12T09:32:02;10.13;;;2.70;;
56511;SDS011;42408;53.238;5.686;2023-04-12T09:34:32;9.02;;;2.13;;
56511;SDS011;42408;53.238;5.686;2023-04-12T09:37:11;7.78;;;2.30;;
56511;SDS011;42408;53.238;5.686;2023-04-12T09:39:38;10.57;;;2.83;;
56511;SDS011;42408;53.238;5.686;2023-04-12T09:42:08;12.43;;;2.90;;
56511;SDS011;42408;53.238;5.686;2023-04-12T09:44:35;7.18;;;2.35;;
56511;SDS011;42408;53.238;5.686;2023-04-12T09:47:01;5.60;;;1.67;;
56511;SDS011;42408;53.238;5.686;2023-04-12T09:49:38;7.47;;;2.30;;
56511;SDS011;42408;53.238;5.686;2023-04-12T09:52:09;8.95;;;2.75;;
56511;SDS011;42408;53.238;5.686;2023-04-12T09:54:36;9.60;;;2.40;;
56511;SDS011;42408;53.238;5.686;2023-04-12T09:57:06;15.15;;;3.03;;
56511;SDS011;42408;53.238;5.686;2023-04-12T09:59:36;6.25;;;2.50;;
56511;SDS011;42408;53.238;5.686;2023-04-12T10:02:23;8.93;;;2.72;;
56511;SDS011;42408;53.238;5.686;2023-04-12T10:04:51;7.72;;;2.80;;
56511;SDS011;42408;53.238;5.686;2023-04-12T10:07:17;7.82;;;2.03;;
56511;SDS011;42408;53.238;5.686;2023-04-12T10:09:44;9.15;;;2.80;;
56511;SDS011;42408;53.238;5.686;2023-04-12T10:12:09;11.20;;;2.90;;
56511;SDS011;42408;53.238;5.686;2023-04-12T10:14:35;8.97;;;2.60;;
56511;SDS011;42408;53.238;5.686;2023-04-12T10:17:02;12.00;;;2.80;;
56511;SDS011;42408;53.238;5.686;2023-04-12T10:19:29;12.70;;;2.50;;
56511;SDS011;42408;53.238;5.686;2023-04-12T10:21:57;9.68;;;2.83;;
56511;SDS011;42408;53.238;5.686;2023-04-12T10:24:24;8.20;;;2.60;;
56511;SDS011;42408;53.238;5.686;2023-04-12T10:26:54;9.60;;;2.40;;
56511;SDS011;42408;53.238;5.686;2023-04-12T10:29:25;14.77;;;3.78;;
56511;SDS011;42408;53.238;5.686;2023-04-12T10:31:55;12.65;;;3.00;;
56511;SDS011;42408;53.238;5.686;2023-04-12T10:34:23;10.52;;;2.92;;
56511;SDS011;42408;53.238;5.686;2023-04-12T10:39:41;15.30;;;3.33;;
56511;SDS011;42408;53.238;5.686;2023-04-12T10:42:22;9.85;;;2.85;;
56511;SDS011;42408;53.238;5.686;2023-04-12T10:45:33;12.45;;;3.35;;
56511;SDS011;42408;53.238;5.686;2023-04-12T10:50:29;11.65;;;3.10;;
56511;SDS011;42408;53.238;5.686;2023-04-12T10:55:39;13.32;;;4.03;;
56511;SDS011;42408;53.238;5.686;2023-04-12T10:58:09;11.80;;;3.20;;
56511;SDS011;42408;53.238;5.686;2023-04-12T11:03:22;12.43;;;3.00;;
56511;SDS011;42408;53.238;5.686;2023-04-12T11:06:02;12.98;;;2.80;;
56511;SDS011;42408;53.238;5.686;2023-04-12T11:08:29;11.93;;;3.50;;
56511;SDS011;42408;53.238;5.686;2023-04-12T11:11:00;13.52;;;3.53;;
56511;SDS011;42408;53.238;5.686;2023-04-12T11:13:28;13.43;;;3.78;;
56511;SDS011;42408;53.238;5.686;2023-04-12T11:16:02;10.73;;;3.50;;
56511;SDS011;42408;53.238;5.686;2023-04-12T11:18:29;11.93;;;3.05;;
56511;SDS011;42408;53.238;5.686;2023-04-12T11:20:57;12.23;;;3.30;;
56511;SDS011;42408;53.238;5.686;2023-04-12T11:23:23;12.23;;;3.00;;
56511;SDS011;42408;53.238;5.686;2023-04-12T11:25:52;8.43;;;3.03;;
56511;SDS011;42408;53.238;5.686;2023-04-12T11:28:18;10.77;;;3.30;;
56511;SDS011;42408;53.238;5.686;2023-04-12T11:30:53;9.97;;;2.97;;
56511;SDS011;42408;53.238;5.686;2023-04-12T11:36:02;10.30;;;2.80;;
56511;SDS011;42408;53.238;5.686;2023-04-12T11:38:30;10.15;;;2.90;;
56511;SDS011;42408;53.238;5.686;2023-04-12T11:40:56;10.80;;;3.13;;
56511;SDS011;42408;53.238;5.686;2023-04-12T11:43:22;12.03;;;3.23;;
56511;SDS011;42408;53.238;5.686;2023-04-12T11:45:47;11.77;;;2.67;;
56511;SDS011;42408;53.238;5.686;2023-04-12T11:48:13;12.90;;;3.40;;
56511;SDS011;42408;53.238;5.686;2023-04-12T11:53:11;14.52;;;4.18;;
56511;SDS011;42408;53.238;5.686;2023-04-12T11:55:37;12.88;;;4.28;;
56511;SDS011;42408;53.238;5.686;2023-04-12T11:58:03;8.50;;;3.30;;
56511;SDS011;42408;53.238;5.686;2023-04-12T12:00:29;12.20;;;3.67;;
56511;SDS011;42408;53.238;5.686;2023-04-12T12:02:55;10.90;;;3.13;;
56511;SDS011;42408;53.238;5.686;2023-04-12T12:05:21;8.35;;;2.55;;
56511;SDS011;42408;53.238;5.686;2023-04-12T12:07:48;15.38;;;3.15;;
56511;SDS011;42408;53.238;5.686;2023-04-12T12:10:14;12.18;;;2.92;;
56511;SDS011;42408;53.238;5.686;2023-04-12T12:12:44;8.70;;;2.60;;
56511;SDS011;42408;53.238;5.686;2023-04-12T12:15:10;11.32;;;2.88;;
56511;SDS011;42408;53.238;5.686;2023-04-12T12:17:38;10.70;;;2.55;;
56511;SDS011;42408;53.238;5.686;2023-04-12T12:20:04;9.13;;;2.93;;
56511;SDS011;42408;53.238;5.686;2023-04-12T12:22:30;8.48;;;2.17;;
56511;SDS011;42408;53.238;5.686;2023-04-12T12:24:57;8.60;;;2.47;;
56511;SDS011;42408;53.238;5.686;2023-04-12T12:27:24;10.40;;;2.45;;
56511;SDS011;42408;53.238;5.686;2023-04-12T12:29:59;12.73;;;2.85;;
56511;SDS011;42408;53.238;5.686;2023-04-12T12:32:30;11.40;;;3.20;;
56511;SDS011;42408;53.238;5.686;2023-04-12T12:35:01;10.30;;;2.90;;
56511;SDS011;42408;53.238;5.686;2023-04-12T12:37:27;9.90;;;3.17;;
56511;SDS011;42408;53.238;5.686;2023-04-12T12:42:34;10.85;;;2.85;;
56511;SDS011;42408;53.238;5.686;2023-04-12T12:45:01;7.72;;;2.35;;
56511;SDS011;42408;53.238;5.686;2023-04-12T12:47:28;9.35;;;2.60;;
56511;SDS011;42408;53.238;5.686;2023-04-12T12:49:55;11.80;;;3.08;;
56511;SDS011;42408;53.238;5.686;2023-04-12T12:52:21;10.73;;;2.57;;
56511;SDS011;42408;53.238;5.686;2023-04-12T12:54:46;10.73;;;2.53;;
56511;SDS011;42408;53.238;5.686;2023-04-12T12:57:12;10.00;;;2.40;;
56511;SDS011;42408;53.238;5.686;2023-04-12T12:59:38;8.70;;;2.33;;
56511;SDS011;42408;53.238;5.686;2023-04-12T13:02:03;9.53;;;2.57;;
56511;SDS011;42408;53.238;5.686;2023-04-12T13:04:29;8.07;;;2.70;;
56511;SDS011;42408;53.238;5.686;2023-04-12T13:06:55;11.53;;;2.53;;
56511;SDS011;42408;53.238;5.686;2023-04-12T13:09:20;7.80;;;2.40;;
56511;SDS011;42408;53.238;5.686;2023-04-12T13:11:46;10.17;;;2.80;;
56511;SDS011;42408;53.238;5.686;2023-04-12T13:14:12;8.68;;;2.22;;
56511;SDS011;42408;53.238;5.686;2023-04-12T13:16:38;6.80;;;2.43;;
56511;SDS011;42408;53.238;5.686;2023-04-12T13:19:04;9.57;;;2.85;;
56511;SDS011;42408;53.238;5.686;2023-04-12T13:21:30;8.90;;;2.60;;
56511;SDS011;42408;53.238;5.686;2023-04-12T13:23:56;9.80;;;2.60;;
56511;SDS011;42408;53.238;5.686;2023-04-12T13:26:21;10.27;;;2.30;;
56511;SDS011;42408;53.238;5.686;2023-04-12T13:28:49;9.90;;;2.28;;
56511;SDS011;42408;53.238;5.686;2023-04-12T13:31:15;10.23;;;2.50;;
56511;SDS011;42408;53.238;5.686;2023-04-12T13:33:41;6.63;;;2.17;;
56511;SDS011;42408;53.238;5.686;2023-04-12T13:36:06;10.20;;;2.60;;
56511;SDS011;42408;53.238;5.686;2023-04-12T13:38:32;8.20;;;2.27;;
56511;SDS011;42408;53.238;5.686;2023-04-12T13:40:58;9.33;;;2.40;;
56511;SDS011;42408;53.238;5.686;2023-04-12T13:43:23;9.13;;;2.50;;
56511;SDS011;42408;53.238;5.686;2023-04-12T13:45:49;15.27;;;2.90;;
56511;SDS011;42408;53.238;5.686;2023-04-12T13:48:15;8.50;;;2.60;;
56511;SDS011;42408;53.238;5.686;2023-04-12T13:50:40;8.53;;;2.60;;
56511;SDS011;42408;53.238;5.686;2023-04-12T13:53:06;9.80;;;3.00;;
56511;SDS011;42408;53.238;5.686;2023-04-12T13:55:32;9.83;;;2.10;;
56511;SDS011;42408;53.238;5.686;2023-04-12T13:57:57;7.80;;;2.10;;
56511;SDS011;42408;53.238;5.686;2023-04-12T14:00:23;11.00;;;2.63;;
56511;SDS011;42408;53.238;5.686;2023-04-12T14:02:49;8.37;;;2.60;;
56511;SDS011;42408;53.238;5.686;2023-04-12T14:05:14;11.40;;;2.80;;
56511;SDS011;42408;53.238;5.686;2023-04-12T14:07:40;8.80;;;2.80;;
56511;SDS011;42408;53.238;5.686;2023-04-12T14:10:06;11.20;;;2.87;;
56511;SDS011;42408;53.238;5.686;2023-04-12T14:12:32;11.55;;;3.03;;
56511;SDS011;42408;53.238;5.686;2023-04-12T14:14:58;12.10;;;3.97;;
56511;SDS011;42408;53.238;5.686;2023-04-12T14:17:23;11.73;;;2.90;;
56511;SDS011;42408;53.238;5.686;2023-04-12T14:19:49;11.70;;;3.10;;
56511;SDS011;42408;53.238;5.686;2023-04-12T14:22:15;13.25;;;3.50;;
56511;SDS011;42408;53.238;5.686;2023-04-12T14:24:40;12.37;;;3.00;;
56511;SDS011;42408;53.238;5.686;2023-04-12T14:27:06;10.97;;;3.47;;
56511;SDS011;42408;53.238;5.686;2023-04-12T14:29:32;15.20;;;3.63;;
56511;SDS011;42408;53.238;5.686;2023-04-12T14:31:58;11.43;;;3.33;;
56511;SDS011;42408;53.238;5.686;2023-04-12T14:34:23;9.40;;;2.93;;
56511;SDS011;42408;53.238;5.686;2023-04-12T14:36:49;13.30;;;3.17;;
56511;SDS011;42408;53.238;5.686;2023-04-12T14:39:15;11.33;;;2.40;;
56511;SDS011;42408;53.238;5.686;2023-04-12T14:41:41;10.50;;;3.23;;
56511;SDS011;42408;53.238;5.686;2023-04-12T14:44:07;12.90;;;3.23;;
56511;SDS011;42408;53.238;5.686;2023-04-12T14:46:32;10.60;;;3.00;;
56511;SDS011;42408;53.238;5.686;2023-04-12T14:48:58;8.93;;;3.30;;
56511;SDS011;42408;53.238;5.686;2023-04-12T14:51:25;11.00;;;2.80;;
56511;SDS011;42408;53.238;5.686;2023-04-12T14:53:52;10.38;;;2.45;;
56511;SDS011;42408;53.238;5.686;2023-04-12T14:56:18;9.17;;;2.80;;
56511;SDS011;42408;53.238;5.686;2023-04-12T14:58:44;12.98;;;2.67;;
56511;SDS011;42408;53.238;5.686;2023-04-12T15:01:10;9.43;;;2.73;;
56511;SDS011;42408;53.238;5.686;2023-04-12T15:03:37;12.18;;;2.97;;
56511;SDS011;42408;53.238;5.686;2023-04-12T15:06:05;6.65;;;2.35;;
56511;SDS011;42408;53.238;5.686;2023-04-12T15:08:32;7.67;;;2.40;;
56511;SDS011;42408;53.238;5.686;2023-04-12T15:10:59;9.55;;;2.05;;
56511;SDS011;42408;53.238;5.686;2023-04-12T15:13:24;8.07;;;2.23;;
56511;SDS011;42408;53.238;5.686;2023-04-12T15:15:51;7.22;;;2.47;;
56511;SDS011;42408;53.238;5.686;2023-04-12T15:18:17;8.13;;;2.50;;
56511;SDS011;42408;53.238;5.686;2023-04-12T15:20:43;10.20;;;2.90;;
56511;SDS011;42408;53.238;5.686;2023-04-12T15:23:08;8.83;;;2.67;;